Time;durP1;ratioP1;P1;durP2;ratioP2;P2;SDS_P1;SDS_P2;PMS_P1;PMS_P2;Temp;Humidity;BMP_temperature;BMP_pressure;BME280_temperature;BME280_humidity;BME280_pressure;Samples;Min_cycle;Max_cycle;Signal;HPM_P1;HPM_P2
2022/06/16 00:00:47;;;;;;;;;;;15.00;94.40;;;;;;5050129;28;19924;-43
2022/06/16 00:03:13;;;;;;;;;;;15.00;94.30;;;;;;5049254;28;19943;-44
2022/06/16 00:05:40;;;;;;;;;;;15.00;94.30;;;;;;5050024;28;19916;-44
2022/06/16 00:08:07;;;;;;;;;;;14.90;94.50;;;;;;5049881;28;20301;-45
2022/06/16 00:10:32;;;;;;;;;;;14.90;95.00;;;;;;5050068;28;19925;-44
2022/06/16 00:12:58;;;;;;;;;;;14.90;94.90;;;;;;5061332;28;20449;-43
2022/06/16 00:15:25;;;;;;;;;;;14.90;94.90;;;;;;5061206;28;20077;-44
2022/06/16 00:17:51;;;;;;;;;;;14.80;95.10;;;;;;5068851;28;20250;-43
2022/06/16 00:20:16;;;;;;;;;;;14.80;95.20;;;;;;5070047;28;20011;-44
2022/06/16 00:22:42;;;;;;;;;;;14.80;95.30;;;;;;5069735;28;20209;-44
2022/06/16 00:25:07;;;;;;;;;;;14.80;95.30;;;;;;5056925;28;20028;-44
2022/06/16 00:27:33;;;;;;;;;;;14.80;95.60;;;;;;5049540;28;20429;-44
2022/06/16 00:29:59;;;;;;;;;;;14.70;95.60;;;;;;5049883;28;19920;-44
2022/06/16 00:32:24;;;;;;;;;;;14.70;96.00;;;;;;5048103;28;19921;-44
2022/06/16 00:34:50;;;;;;;;;;;14.70;95.90;;;;;;5059641;28;19916;-44
2022/06/16 00:37:15;;;;;;;;;;;14.70;95.70;;;;;;5067955;28;19916;-43
2022/06/16 00:39:41;;;;;;;;;;;14.70;96.20;;;;;;5058705;28;19943;-44
2022/06/16 00:42:07;;;;;;;;;;;14.70;96.40;;;;;;5059224;28;19916;-43
2022/06/16 00:44:32;;;;;;;;;;;14.60;96.40;;;;;;5060134;28;19939;-43
2022/06/16 00:46:58;;;;;;;;;;;14.60;96.30;;;;;;5069096;28;19920;-44
2022/06/16 00:49:24;;;;;;;;;;;14.60;96.50;;;;;;5069817;28;19923;-45
2022/06/16 00:51:52;;;;;;;;;;;14.60;96.50;;;;;;5068672;28;19920;-44
2022/06/16 00:54:25;;;;;;;;;;;14.50;96.70;;;;;;5069022;28;19936;-45
2022/06/16 00:56:52;;;;;;;;;;;14.50;97.00;;;;;;5063123;28;19952;-44
2022/06/16 00:59:19;;;;;;;;;;;14.50;97.20;;;;;;5069455;28;19916;-44
2022/06/16 01:01:45;;;;;;;;;;;14.50;97.50;;;;;;5069364;28;20376;-44
2022/06/16 01:06:55;;;;;;;;;;;14.40;97.40;;;;;;5055599;28;19921;-44
2022/06/16 01:09:23;;;;;;;;;;;14.30;97.80;;;;;;5063553;28;20296;-45
2022/06/16 01:15:01;;;;;;;;;;;14.30;98.30;;;;;;5071991;28;20301;-44
2022/06/16 01:17:36;;;;;;;;;;;14.30;98.00;;;;;;5059156;28;19962;-44
2022/06/16 01:20:12;;;;;;;;;;;14.30;97.90;;;;;;5055724;28;19924;-45
2022/06/16 01:22:51;;;;;;;;;;;14.20;98.40;;;;;;5072851;28;19960;-43
2022/06/16 01:25:29;;;;;;;;;;;14.30;98.50;;;;;;5073051;28;19927;-44
2022/06/16 01:28:05;;;;;;;;;;;14.20;98.60;;;;;;5070756;28;19999;-44
2022/06/16 01:30:35;;;;;;;;;;;14.20;98.60;;;;;;5051537;28;19917;-46
2022/06/16 01:33:08;;;;;;;;;;;14.20;98.60;;;;;;5052047;28;19916;-44
2022/06/16 01:35:56;;;;;;;;;;;14.20;98.90;;;;;;5052596;28;20381;-43
2022/06/16 01:38:33;;;;;;;;;;;14.20;99.10;;;;;;5059058;28;19923;-44
2022/06/16 01:41:09;;;;;;;;;;;14.20;99.20;;;;;;5072543;28;19923;-43
2022/06/16 01:43:36;;;;;;;;;;;14.20;99.10;;;;;;5071122;28;20285;-44
2022/06/16 01:46:13;;;;;;;;;;;14.10;98.90;;;;;;5072109;28;19924;-44
2022/06/16 01:48:41;;;;;;;;;;;14.10;99.40;;;;;;5060029;28;19960;-44
2022/06/16 01:51:15;;;;;;;;;;;14.00;99.50;;;;;;5068574;28;20297;-44
2022/06/16 01:53:40;;;;;;;;;;;14.00;99.40;;;;;;5071483;28;20014;-44
2022/06/16 01:56:17;;;;;;;;;;;14.00;99.40;;;;;;5071766;28;20010;-43
2022/06/16 01:58:44;;;;;;;;;;;13.90;99.20;;;;;;5070990;28;19966;-43
2022/06/16 02:01:14;;;;;;;;;;;13.90;99.20;;;;;;5072179;28;19916;-44
2022/06/16 02:03:40;;;;;;;;;;;13.80;99.40;;;;;;5068027;28;20365;-44
2022/06/16 02:06:12;;;;;;;;;;;13.80;99.50;;;;;;5071243;28;20023;-44
2022/06/16 02:08:40;;;;;;;;;;;13.70;99.70;;;;;;5065340;28;19951;-44
2022/06/16 02:11:11;;;;;;;;;;;13.70;99.60;;;;;;5052441;28;19916;-43
2022/06/16 02:13:39;;;;;;;;;;;13.60;99.70;;;;;;5050320;28;20292;-43
2022/06/16 02:16:07;;;;;;;;;;;13.70;99.90;;;;;;5052090;28;19917;-44
2022/06/16 02:18:35;;;;;;;;;;;13.60;99.90;;;;;;5054565;28;20397;-43
2022/06/16 02:21:21;;;;;;;;;;;13.60;99.90;;;;;;5072357;28;19970;-43
2022/06/16 02:23:47;;;;;;;;;;;13.50;99.90;;;;;;5053661;28;19932;-44
2022/06/16 02:26:14;;;;;;;;;;;13.40;99.90;;;;;;5049964;28;19916;-45
2022/06/16 02:28:46;;;;;;;;;;;13.30;99.90;;;;;;5052250;28;19927;-44
2022/06/16 02:31:20;;;;;;;;;;;13.30;99.90;;;;;;5051728;28;20367;-43
2022/06/16 02:33:52;;;;;;;;;;;13.30;99.90;;;;;;5060770;28;19917;-43
2022/06/16 02:36:35;;;;;;;;;;;13.20;99.90;;;;;;5071659;28;19924;-43
2022/06/16 02:39:06;;;;;;;;;;;13.20;99.90;;;;;;5070530;28;19920;-46
2022/06/16 02:41:40;;;;;;;;;;;13.20;99.90;;;;;;5070808;28;20465;-43
2022/06/16 02:44:26;;;;;;;;;;;13.10;99.90;;;;;;5052444;28;19921;-44
2022/06/16 02:46:56;;;;;;;;;;;13.10;99.90;;;;;;5046632;28;19924;-43
2022/06/16 02:49:22;;;;;;;;;;;13.10;99.90;;;;;;5056001;28;19921;-44
2022/06/16 02:51:53;;;;;;;;;;;13.10;99.90;;;;;;5053248;28;20497;-43
2022/06/16 02:54:22;;;;;;;;;;;13.10;99.90;;;;;;5058814;28;19921;-43
2022/06/16 02:56:58;;;;;;;;;;;13.00;99.90;;;;;;5054566;28;19989;-45
2022/06/16 02:59:26;;;;;;;;;;;13.00;99.90;;;;;;5068748;28;20432;-43
2022/06/16 03:01:53;;;;;;;;;;;13.00;99.90;;;;;;5057634;28;19940;-44
2022/06/16 03:04:18;;;;;;;;;;;13.00;99.90;;;;;;5050320;28;19921;-43
2022/06/16 03:06:44;;;;;;;;;;;13.00;99.90;;;;;;5058490;28;19939;-43
2022/06/16 03:09:11;;;;;;;;;;;12.90;99.90;;;;;;5070974;28;19994;-44
2022/06/16 03:11:37;;;;;;;;;;;12.90;99.90;;;;;;5053235;28;19917;-43
2022/06/16 03:14:03;;;;;;;;;;;12.90;99.90;;;;;;5050195;28;19920;-43
2022/06/16 03:16:28;;;;;;;;;;;12.90;99.90;;;;;;5050575;28;19916;-43
2022/06/16 03:18:54;;;;;;;;;;;12.90;99.90;;;;;;5058759;28;19917;-43
2022/06/16 03:21:20;;;;;;;;;;;12.90;99.90;;;;;;5060233;28;19925;-44
2022/06/16 03:23:45;;;;;;;;;;;12.80;99.90;;;;;;5064493;28;20015;-43
2022/06/16 03:26:11;;;;;;;;;;;12.80;99.90;;;;;;5070448;28;19918;-43
2022/06/16 03:28:36;;;;;;;;;;;12.80;99.90;;;;;;5062565;28;19923;-43
2022/06/16 03:31:02;;;;;;;;;;;12.80;99.90;;;;;;5050630;28;19969;-44
2022/06/16 03:33:28;;;;;;;;;;;12.80;99.90;;;;;;5049212;28;19917;-43
2022/06/16 03:35:53;;;;;;;;;;;12.80;99.90;;;;;;5048793;28;20011;-43
2022/06/16 03:38:30;;;;;;;;;;;12.80;99.90;;;;;;5049657;28;19964;-43
2022/06/16 03:40:56;;;;;;;;;;;12.90;99.90;;;;;;5051527;28;19923;-44
2022/06/16 03:43:21;;;;;;;;;;;12.90;99.90;;;;;;5049863;28;19925;-43
2022/06/16 03:45:47;;;;;;;;;;;12.80;99.90;;;;;;5064377;28;19916;-44
2022/06/16 03:48:12;;;;;;;;;;;12.80;99.90;;;;;;5070121;28;19981;-44
2022/06/16 03:50:38;;;;;;;;;;;12.80;99.90;;;;;;5070729;28;19920;-43
2022/06/16 03:53:03;;;;;;;;;;;12.80;99.90;;;;;;5066204;28;19916;-43
2022/06/16 03:55:29;;;;;;;;;;;12.80;99.90;;;;;;5070830;28;19916;-43
2022/06/16 03:57:54;;;;;;;;;;;12.70;99.90;;;;;;5066712;28;21305;-43
2022/06/16 04:00:21;;;;;;;;;;;12.70;99.90;;;;;;5070152;28;19927;-44
2022/06/16 04:02:47;;;;;;;;;;;12.70;99.90;;;;;;5052993;28;19917;-43
2022/06/16 04:05:13;;;;;;;;;;;12.60;99.90;;;;;;5054937;28;20259;-43
2022/06/16 04:07:39;;;;;;;;;;;12.60;99.90;;;;;;5063316;28;19921;-43
2022/06/16 04:10:05;;;;;;;;;;;12.60;99.90;;;;;;5069917;28;19916;-43
2022/06/16 04:12:31;;;;;;;;;;;12.70;99.90;;;;;;5060272;28;19924;-43
2022/06/16 04:14:56;;;;;;;;;;;12.70;99.90;;;;;;5065455;28;19916;-43
2022/06/16 04:17:22;;;;;;;;;;;12.70;99.90;;;;;;5069873;28;19921;-44
2022/06/16 04:22:32;;;;;;;;;;;12.60;99.90;;;;;;5068739;28;20373;-43
2022/06/16 04:24:57;;;;;;;;;;;12.60;99.90;;;;;;5069317;28;19920;-44
2022/06/16 04:27:23;;;;;;;;;;;12.70;99.90;;;;;;5059000;28;19923;-43
2022/06/16 04:29:50;;;;;;;;;;;12.70;99.90;;;;;;5067688;28;19916;-45
2022/06/16 04:32:15;;;;;;;;;;;12.70;99.90;;;;;;5068376;28;20020;-44
2022/06/16 04:34:42;;;;;;;;;;;12.70;99.90;;;;;;5048967;28;20179;-46
2022/06/16 04:37:08;;;;;;;;;;;12.70;99.90;;;;;;5049561;28;19916;-43
2022/06/16 04:39:34;;;;;;;;;;;12.70;99.90;;;;;;5064025;28;20166;-43
2022/06/16 04:41:59;;;;;;;;;;;12.70;99.90;;;;;;5069252;28;19963;-43
2022/06/16 04:44:25;;;;;;;;;;;12.80;99.90;;;;;;5050117;28;20271;-43
2022/06/16 04:46:50;;;;;;;;;;;12.90;99.90;;;;;;5049470;28;19917;-43
2022/06/16 04:49:16;;;;;;;;;;;13.00;99.90;;;;;;5052034;28;19921;-44
2022/06/16 04:51:42;;;;;;;;;;;13.00;99.90;;;;;;5053452;28;20432;-43
2022/06/16 04:54:07;;;;;;;;;;;13.10;99.90;;;;;;5054080;28;20320;-44
2022/06/16 04:56:33;;;;;;;;;;;13.20;99.90;;;;;;5055531;28;20326;-45
2022/06/16 04:58:58;;;;;;;;;;;13.30;99.90;;;;;;5073417;28;19916;-46
2022/06/16 05:01:24;;;;;;;;;;;13.30;99.90;;;;;;5068333;28;20007;-45
2022/06/16 05:03:49;;;;;;;;;;;13.40;99.90;;;;;;5063153;28;20302;-43
2022/06/16 05:06:15;;;;;;;;;;;13.60;99.90;;;;;;5059422;28;19916;-46
2022/06/16 05:08:40;;;;;;;;;;;13.60;99.90;;;;;;5067178;28;19916;-44
2022/06/16 05:11:06;;;;;;;;;;;13.70;99.90;;;;;;5059430;28;19970;-44
2022/06/16 05:13:32;;;;;;;;;;;13.70;99.90;;;;;;5070508;28;19927;-44
2022/06/16 05:15:57;;;;;;;;;;;13.80;99.90;;;;;;5072777;28;19931;-43
2022/06/16 05:18:23;;;;;;;;;;;13.90;99.90;;;;;;5064157;28;20373;-43
2022/06/16 05:20:48;;;;;;;;;;;13.90;99.90;;;;;;5064483;28;20026;-43
2022/06/16 05:23:14;;;;;;;;;;;14.00;99.90;;;;;;5061438;28;19947;-43
2022/06/16 05:25:40;;;;;;;;;;;14.00;99.90;;;;;;5062125;28;19916;-44
2022/06/16 05:28:06;;;;;;;;;;;14.10;99.90;;;;;;5061496;28;19916;-44
2022/06/16 05:30:32;;;;;;;;;;;14.10;99.90;;;;;;5072282;28;19920;-44
2022/06/16 05:32:57;;;;;;;;;;;14.10;99.90;;;;;;5064097;28;19923;-44
2022/06/16 05:35:23;;;;;;;;;;;14.20;99.90;;;;;;5056514;28;19923;-43
2022/06/16 05:37:49;;;;;;;;;;;14.30;99.90;;;;;;5070871;28;20407;-43
2022/06/16 05:40:14;;;;;;;;;;;14.30;99.90;;;;;;5061246;28;19916;-45
2022/06/16 05:42:41;;;;;;;;;;;14.40;99.90;;;;;;5068403;28;20378;-43
2022/06/16 05:45:07;;;;;;;;;;;14.40;99.90;;;;;;5054202;28;19927;-43
2022/06/16 05:47:35;;;;;;;;;;;14.40;99.90;;;;;;5054228;28;20312;-44
2022/06/16 05:50:00;;;;;;;;;;;14.50;99.90;;;;;;5053154;28;19916;-44
2022/06/16 05:52:26;;;;;;;;;;;14.50;99.90;;;;;;5067486;28;19923;-44
2022/06/16 05:54:54;;;;;;;;;;;14.60;99.90;;;;;;5059016;28;19979;-43
2022/06/16 05:57:19;;;;;;;;;;;14.60;99.90;;;;;;5062688;28;19999;-43
2022/06/16 05:59:45;;;;;;;;;;;14.60;99.90;;;;;;5071275;28;20007;-44
2022/06/16 06:02:13;;;;;;;;;;;14.70;99.90;;;;;;5071435;28;19916;-43
2022/06/16 06:04:38;;;;;;;;;;;14.70;99.90;;;;;;5066961;28;19978;-43
2022/06/16 06:07:04;;;;;;;;;;;14.70;99.90;;;;;;5070076;28;19967;-43
2022/06/16 06:17:51;;;;;;;;;;;15.10;99.90;;;;;;5038317;28;19916;-43
2022/06/16 06:20:17;;;;;;;;;;;15.20;99.90;;;;;;5066547;28;20011;-43
2022/06/16 06:22:42;;;;;;;;;;;15.30;99.90;;;;;;5071068;28;19916;-45
2022/06/16 06:25:08;;;;;;;;;;;15.30;99.90;;;;;;5053043;28;19924;-43
2022/06/16 06:27:41;;;;;;;;;;;15.40;99.90;;;;;;5060885;28;20366;-45
2022/06/16 06:30:12;;;;;;;;;;;15.50;99.90;;;;;;5062918;28;19962;-44
2022/06/16 06:32:38;;;;;;;;;;;15.60;99.90;;;;;;5055810;28;19916;-43
2022/06/16 06:35:04;;;;;;;;;;;15.70;99.90;;;;;;5065160;28;20038;-44
2022/06/16 06:37:29;;;;;;;;;;;15.80;99.90;;;;;;5063748;28;19924;-44
2022/06/16 06:39:55;;;;;;;;;;;15.80;99.90;;;;;;5058275;28;20348;-45
2022/06/16 06:42:21;;;;;;;;;;;15.90;99.90;;;;;;5070121;28;19923;-44
2022/06/16 06:44:46;;;;;;;;;;;16.00;99.90;;;;;;5050938;28;20277;-44
2022/06/16 06:47:17;;;;;;;;;;;16.00;99.90;;;;;;5051293;28;19928;-43
2022/06/16 06:49:43;;;;;;;;;;;16.10;99.90;;;;;;5059147;28;19923;-43
2022/06/16 06:52:08;;;;;;;;;;;16.20;99.90;;;;;;5068713;28;20281;-44
2022/06/16 06:54:34;;;;;;;;;;;16.30;99.90;;;;;;5066430;28;19916;-43
2022/06/16 06:56:59;;;;;;;;;;;16.30;99.90;;;;;;5069668;28;20434;-44
2022/06/16 06:59:25;;;;;;;;;;;16.40;99.90;;;;;;5057780;28;20007;-44
2022/06/16 07:01:50;;;;;;;;;;;16.50;99.90;;;;;;5065568;28;20283;-44
2022/06/16 07:04:16;;;;;;;;;;;16.50;99.90;;;;;;5070114;28;20124;-44
2022/06/16 07:06:42;;;;;;;;;;;16.60;99.90;;;;;;5057948;28;19970;-44
2022/06/16 07:09:09;;;;;;;;;;;16.70;99.90;;;;;;5053046;28;19921;-44
2022/06/16 07:11:34;;;;;;;;;;;16.70;99.90;;;;;;5054419;28;20222;-44
2022/06/16 07:14:00;;;;;;;;;;;16.80;99.90;;;;;;5067999;28;19969;-44
2022/06/16 07:16:25;;;;;;;;;;;16.80;99.60;;;;;;5055928;28;20006;-44
2022/06/16 07:18:51;;;;;;;;;;;16.90;99.40;;;;;;5078816;28;19916;-43
2022/06/16 07:21:16;;;;;;;;;;;17.00;99.70;;;;;;5051187;28;19916;-45
2022/06/16 07:23:42;;;;;;;;;;;17.00;99.70;;;;;;5056155;28;19924;-44
2022/06/16 07:26:08;;;;;;;;;;;17.00;99.80;;;;;;5058149;28;20432;-44
2022/06/16 07:28:34;;;;;;;;;;;17.10;99.00;;;;;;5056127;28;20010;-44
2022/06/16 07:30:59;;;;;;;;;;;17.10;99.60;;;;;;5058709;28;19955;-45
2022/06/16 07:33:25;;;;;;;;;;;17.20;99.00;;;;;;5068040;28;20356;-44
2022/06/16 07:35:52;;;;;;;;;;;17.20;98.60;;;;;;5066657;28;19916;-44
2022/06/16 07:38:18;;;;;;;;;;;17.30;98.10;;;;;;5070498;28;19999;-43
2022/06/16 07:40:44;;;;;;;;;;;17.40;98.50;;;;;;5064298;28;20007;-44
2022/06/16 07:43:09;;;;;;;;;;;17.40;98.50;;;;;;5049565;28;19916;-43
2022/06/16 07:45:37;;;;;;;;;;;17.50;98.90;;;;;;5056125;28;19916;-43
2022/06/16 07:48:05;;;;;;;;;;;17.60;98.50;;;;;;5058964;28;19948;-43
2022/06/16 07:50:31;;;;;;;;;;;17.60;97.70;;;;;;5049790;28;19921;-43
2022/06/16 07:52:57;;;;;;;;;;;17.70;97.70;;;;;;5067819;28;19979;-43
2022/06/16 07:55:22;;;;;;;;;;;17.80;97.00;;;;;;5059645;28;20405;-44
2022/06/16 07:57:50;;;;;;;;;;;17.90;96.70;;;;;;5052108;28;20362;-43
2022/06/16 08:00:17;;;;;;;;;;;17.90;97.20;;;;;;5057228;28;19916;-43
2022/06/16 08:02:43;;;;;;;;;;;18.00;96.70;;;;;;5069209;28;20407;-45
2022/06/16 08:05:10;;;;;;;;;;;18.00;95.70;;;;;;5054267;28;19920;-43
2022/06/16 08:07:35;;;;;;;;;;;18.10;95.80;;;;;;5055209;28;20400;-43
2022/06/16 08:10:01;;;;;;;;;;;18.10;95.70;;;;;;5070818;28;19921;-43
2022/06/16 08:12:27;;;;;;;;;;;18.20;95.40;;;;;;5059318;28;20278;-44
2022/06/16 08:14:52;;;;;;;;;;;18.20;95.30;;;;;;5049963;28;19916;-44
2022/06/16 08:17:20;;;;;;;;;;;18.30;95.90;;;;;;5050373;28;20015;-43
2022/06/16 08:19:46;;;;;;;;;;;18.40;95.10;;;;;;5051080;28;20028;-45
2022/06/16 08:22:12;;;;;;;;;;;18.40;95.20;;;;;;5050079;28;20023;-44
2022/06/16 08:24:38;;;;;;;;;;;18.50;95.60;;;;;;5070260;28;19928;-44
2022/06/16 08:27:03;;;;;;;;;;;18.50;94.90;;;;;;5069642;28;20386;-44
2022/06/16 08:29:29;;;;;;;;;;;18.60;94.30;;;;;;5055104;28;19981;-44
2022/06/16 08:31:56;;;;;;;;;;;18.70;94.30;;;;;;5053581;28;20397;-44
2022/06/16 08:34:21;;;;;;;;;;;18.70;93.80;;;;;;5064753;28;19927;-44
2022/06/16 08:36:47;;;;;;;;;;;18.70;94.20;;;;;;5073530;28;19916;-44
2022/06/16 08:39:12;;;;;;;;;;;18.80;94.00;;;;;;5068782;28;20007;-44
2022/06/16 08:41:45;;;;;;;;;;;18.90;93.70;;;;;;5072208;28;19923;-44
2022/06/16 08:44:29;;;;;;;;;;;18.90;93.90;;;;;;5071410;28;20006;-45
2022/06/16 08:47:14;;;;;;;;;;;19.00;93.50;;;;;;5073191;28;19927;-44
2022/06/16 08:49:55;;;;;;;;;;;19.10;93.90;;;;;;5057134;28;19917;-44
2022/06/16 08:52:40;;;;;;;;;;;19.20;93.40;;;;;;5064012;28;19934;-44
2022/06/16 08:55:23;;;;;;;;;;;19.30;93.10;;;;;;5064441;28;19917;-45
2022/06/16 08:57:54;;;;;;;;;;;19.30;93.40;;;;;;5052704;28;19916;-46
2022/06/16 09:00:26;;;;;;;;;;;19.40;93.10;;;;;;5054566;28;20043;-46
2022/06/16 09:02:58;;;;;;;;;;;19.40;94.00;;;;;;5052759;28;19921;-47
2022/06/16 09:05:42;;;;;;;;;;;19.40;93.40;;;;;;5053500;28;19966;-45
2022/06/16 09:08:28;;;;;;;;;;;19.50;93.70;;;;;;5062601;28;19995;-44
2022/06/16 09:10:57;;;;;;;;;;;19.50;92.40;;;;;;5061678;28;20420;-45
2022/06/16 09:13:34;;;;;;;;;;;19.60;91.90;;;;;;5070934;28;19924;-45
2022/06/16 09:16:11;;;;;;;;;;;19.70;93.50;;;;;;5064919;28;19916;-45
2022/06/16 09:18:48;;;;;;;;;;;19.70;92.90;;;;;;5053348;28;20410;-44
2022/06/16 09:21:25;;;;;;;;;;;19.80;93.20;;;;;;5067593;28;19928;-44
2022/06/16 09:24:10;;;;;;;;;;;19.90;92.10;;;;;;5065240;28;20055;-45
2022/06/16 09:26:54;;;;;;;;;;;19.90;91.70;;;;;;5052684;28;20293;-44
2022/06/16 09:29:23;;;;;;;;;;;19.90;92.90;;;;;;5062815;28;19931;-45
2022/06/16 09:32:07;;;;;;;;;;;20.00;92.60;;;;;;5072357;28;20369;-45
2022/06/16 09:34:36;;;;;;;;;;;20.00;91.60;;;;;;5053075;28;19927;-44
2022/06/16 09:37:15;;;;;;;;;;;20.00;91.20;;;;;;5054067;28;20007;-44
2022/06/16 09:39:42;;;;;;;;;;;20.00;92.30;;;;;;5070904;28;20002;-44
2022/06/16 09:45:04;;;;;;;;;;;20.10;92.50;;;;;;5062473;28;19924;-43
2022/06/16 09:47:45;;;;;;;;;;;20.10;92.40;;;;;;5062309;28;20336;-43
2022/06/16 09:50:27;;;;;;;;;;;20.20;92.40;;;;;;5051138;28;19927;-43
2022/06/16 09:52:56;;;;;;;;;;;20.20;92.40;;;;;;5053986;28;20015;-43
2022/06/16 09:55:37;;;;;;;;;;;20.20;92.00;;;;;;5071994;28;19982;-43
2022/06/16 09:58:12;;;;;;;;;;;20.30;92.20;;;;;;5060044;28;19932;-44
2022/06/16 10:00:38;;;;;;;;;;;20.40;91.80;;;;;;5051291;28;19917;-43
2022/06/16 10:03:16;;;;;;;;;;;20.40;91.30;;;;;;5058819;28;20006;-43
2022/06/16 10:06:04;;;;;;;;;;;20.50;91.30;;;;;;5069606;28;20352;-44
2022/06/16 10:08:38;;;;;;;;;;;20.50;91.60;;;;;;5067324;28;19927;-43
2022/06/16 10:11:07;;;;;;;;;;;20.50;91.40;;;;;;5072111;28;20390;-44
2022/06/16 10:13:55;;;;;;;;;;;20.60;91.90;;;;;;5061822;28;19927;-45
2022/06/16 10:16:29;;;;;;;;;;;20.60;92.20;;;;;;5053149;28;19917;-45
2022/06/16 10:18:55;;;;;;;;;;;20.70;90.80;;;;;;5069607;28;20568;-43
2022/06/16 10:21:21;;;;;;;;;;;20.80;91.10;;;;;;5052752;28;19971;-44
2022/06/16 10:23:57;;;;;;;;;;;20.90;91.20;;;;;;5055129;28;19921;-44
2022/06/16 10:26:22;;;;;;;;;;;20.90;91.40;;;;;;5068476;28;20748;-43
2022/06/16 10:28:50;;;;;;;;;;;21.00;90.80;;;;;;5054070;28;20003;-45
2022/06/16 10:31:27;;;;;;;;;;;21.00;91.20;;;;;;5064696;28;20395;-44
2022/06/16 10:33:54;;;;;;;;;;;21.00;91.70;;;;;;5071293;28;19923;-44
2022/06/16 10:36:23;;;;;;;;;;;21.10;91.80;;;;;;5056601;28;19920;-44
2022/06/16 10:39:21;;;;;;;;;;;21.10;92.30;;;;;;5052865;28;19916;-44
2022/06/16 10:42:01;;;;;;;;;;;21.20;90.50;;;;;;5051051;28;19983;-45
2022/06/16 10:44:27;;;;;;;;;;;21.30;90.40;;;;;;5051595;28;19964;-44
2022/06/16 10:46:57;;;;;;;;;;;21.30;90.30;;;;;;5050754;28;19998;-44
2022/06/16 10:49:43;;;;;;;;;;;21.40;90.00;;;;;;5051186;28;19921;-44
2022/06/16 10:52:14;;;;;;;;;;;21.50;90.70;;;;;;5050756;28;19924;-44
2022/06/16 10:54:46;;;;;;;;;;;21.60;89.80;;;;;;5051972;28;19917;-44
2022/06/16 10:57:22;;;;;;;;;;;21.60;89.90;;;;;;5051106;28;19920;-44
2022/06/16 10:59:56;;;;;;;;;;;21.70;91.50;;;;;;5053042;28;19935;-46
2022/06/16 11:02:25;;;;;;;;;;;21.70;90.10;;;;;;5062860;28;19967;-44
2022/06/16 11:05:00;;;;;;;;;;;21.80;87.40;;;;;;5055662;28;19928;-46
2022/06/16 11:07:28;;;;;;;;;;;21.80;87.60;;;;;;5052861;28;19923;-44
2022/06/16 11:09:59;;;;;;;;;;;21.80;86.90;;;;;;5047280;28;19917;-44
2022/06/16 11:12:25;;;;;;;;;;;21.70;89.10;;;;;;5062885;28;19923;-44
2022/06/16 11:14:55;;;;;;;;;;;21.80;88.30;;;;;;5060198;28;19920;-44
2022/06/16 11:17:29;;;;;;;;;;;21.80;87.00;;;;;;5067871;28;19924;-44
2022/06/16 11:19:59;;;;;;;;;;;21.80;86.20;;;;;;5068477;28;19920;-44
2022/06/16 11:22:34;;;;;;;;;;;21.80;86.20;;;;;;5063051;28;19982;-44
2022/06/16 11:25:18;;;;;;;;;;;21.80;86.40;;;;;;5057122;28;19927;-44
2022/06/16 11:27:54;;;;;;;;;;;21.80;85.70;;;;;;5068726;28;19917;-44
2022/06/16 11:30:40;;;;;;;;;;;21.80;87.40;;;;;;5057592;28;20062;-45
2022/06/16 11:34:06;;;;;;;;;;;21.80;84.80;;;;;;5065613;28;19924;-44
2022/06/16 11:36:08;;;;;;;;;;;21.80;88.20;;;;;;5057946;28;19921;-46
2022/06/16 11:38:39;;;;;;;;;;;21.90;88.20;;;;;;5056656;28;19968;-45
2022/06/16 11:41:07;;;;;;;;;;;21.90;85.30;;;;;;5064289;28;19916;-45
2022/06/16 11:43:48;;;;;;;;;;;21.90;88.30;;;;;;5063153;28;19921;-45
2022/06/16 11:46:13;;;;;;;;;;;22.00;88.40;;;;;;5059192;28;19923;-45
2022/06/16 11:48:54;;;;;;;;;;;22.10;88.90;;;;;;5069118;28;20011;-44
2022/06/16 11:51:38;;;;;;;;;;;22.20;88.00;;;;;;5060623;28;19916;-45
2022/06/16 11:54:22;;;;;;;;;;;22.30;88.10;;;;;;5057158;28;20317;-45
2022/06/16 11:57:00;;;;;;;;;;;22.40;88.20;;;;;;5056035;28;20451;-46
2022/06/16 11:59:25;;;;;;;;;;;22.50;89.10;;;;;;5054746;28;20190;-45
2022/06/16 12:02:09;;;;;;;;;;;22.50;86.90;;;;;;5058928;28;19921;-45
2022/06/16 12:04:38;;;;;;;;;;;22.50;88.10;;;;;;5064527;28;19920;-45
2022/06/16 12:07:12;;;;;;;;;;;22.60;85.90;;;;;;5057873;28;19932;-45
2022/06/16 12:09:51;;;;;;;;;;;22.60;88.50;;;;;;5060298;28;20020;-45
2022/06/16 12:12:19;;;;;;;;;;;22.70;87.50;;;;;;5056396;28;19923;-45
2022/06/16 12:14:54;;;;;;;;;;;22.80;87.90;;;;;;5053338;28;19920;-47
2022/06/16 12:17:23;;;;;;;;;;;22.80;87.00;;;;;;5056494;28;20297;-45
2022/06/16 12:20:06;;;;;;;;;;;22.90;86.00;;;;;;5053730;28;19924;-45
2022/06/16 12:22:51;;;;;;;;;;;22.90;85.60;;;;;;5055201;28;20305;-45
2022/06/16 12:25:16;;;;;;;;;;;22.90;84.20;;;;;;5051713;28;19931;-45
2022/06/16 12:28:00;;;;;;;;;;;22.90;83.90;;;;;;5061263;28;19920;-45
2022/06/16 12:30:32;;;;;;;;;;;22.80;84.90;;;;;;5068840;28;20363;-45
2022/06/16 12:32:57;;;;;;;;;;;22.80;84.80;;;;;;5066607;28;19967;-45
2022/06/16 12:35:34;;;;;;;;;;;22.80;84.50;;;;;;5061021;28;19960;-45
2022/06/16 12:38:02;;;;;;;;;;;22.90;83.30;;;;;;5054951;28;19922;-45
2022/06/16 12:40:34;;;;;;;;;;;23.00;84.30;;;;;;5050869;28;19916;-44
2022/06/16 12:43:01;;;;;;;;;;;23.10;82.00;;;;;;5052142;28;20349;-45
2022/06/16 12:45:35;;;;;;;;;;;23.10;86.10;;;;;;5052107;28;19924;-45
2022/06/16 12:48:09;;;;;;;;;;;23.10;82.10;;;;;;5052358;28;19925;-45
2022/06/16 12:50:38;;;;;;;;;;;23.10;82.50;;;;;;5054071;28;19920;-45
2022/06/16 12:53:06;;;;;;;;;;;23.10;83.10;;;;;;5051446;28;20233;-45
2022/06/16 12:55:40;;;;;;;;;;;23.20;83.10;;;;;;5059812;28;19963;-45
2022/06/16 12:58:12;;;;;;;;;;;23.10;81.10;;;;;;5051327;28;20370;-45
2022/06/16 13:00:41;;;;;;;;;;;23.10;81.00;;;;;;5059267;28;19916;-45
2022/06/16 13:03:09;;;;;;;;;;;23.20;82.20;;;;;;5067520;28;19916;-45
2022/06/16 13:05:35;;;;;;;;;;;23.20;81.60;;;;;;5054124;28;19990;-46
2022/06/16 13:08:02;;;;;;;;;;;23.30;81.50;;;;;;5066611;28;19924;-45
2022/06/16 13:10:32;;;;;;;;;;;23.30;82.00;;;;;;5069805;28;20006;-45
2022/06/16 13:12:58;;;;;;;;;;;23.40;83.20;;;;;;5070384;28;19934;-45
2022/06/16 13:15:31;;;;;;;;;;;23.40;80.60;;;;;;5070621;28;19973;-46
2022/06/16 13:18:01;;;;;;;;;;;23.40;80.40;;;;;;5069624;28;19916;-46
2022/06/16 13:20:28;;;;;;;;;;;23.40;82.30;;;;;;5063025;28;19920;-45
2022/06/16 13:23:01;;;;;;;;;;;23.30;80.60;;;;;;5070412;28;19921;-45
2022/06/16 13:25:42;;;;;;;;;;;23.30;80.60;;;;;;5061726;28;19924;-45
2022/06/16 13:28:24;;;;;;;;;;;23.40;82.50;;;;;;5065369;28;19923;-45
2022/06/16 13:31:00;;;;;;;;;;;23.40;79.90;;;;;;5059724;28;20420;-46
2022/06/16 13:33:46;;;;;;;;;;;23.50;80.10;;;;;;5069891;28;19917;-45
2022/06/16 13:36:14;;;;;;;;;;;23.60;82.30;;;;;;5068696;28;20428;-45
2022/06/16 13:38:42;;;;;;;;;;;23.70;81.10;;;;;;5071349;28;20043;-45
2022/06/16 13:41:26;;;;;;;;;;;23.70;81.50;;;;;;5062785;28;19924;-45
2022/06/16 13:44:05;;;;;;;;;;;23.80;80.30;;;;;;5055506;28;19960;-45
2022/06/16 13:47:09;;;;;;;;;;;23.80;79.40;;;;;;5062156;28;19924;-46
2022/06/16 13:49:53;;;;;;;;;;;23.80;80.80;;;;;;5056465;28;19960;-46
2022/06/16 13:52:27;;;;;;;;;;;23.80;79.20;;;;;;5057694;28;20448;-46
2022/06/16 13:55:03;;;;;;;;;;;23.80;79.90;;;;;;5063405;28;19920;-46
2022/06/16 13:57:30;;;;;;;;;;;23.80;80.30;;;;;;5071181;28;20347;-45
2022/06/16 14:00:00;;;;;;;;;;;23.80;78.40;;;;;;5070854;28;19917;-45
2022/06/16 14:02:26;;;;;;;;;;;23.80;78.70;;;;;;5063769;28;19920;-45
2022/06/16 14:05:00;;;;;;;;;;;23.80;77.40;;;;;;5063399;28;20102;-45
2022/06/16 14:07:30;;;;;;;;;;;23.90;78.00;;;;;;5062771;28;19917;-45
2022/06/16 14:09:59;;;;;;;;;;;23.90;77.40;;;;;;5070777;28;19917;-46
2022/06/16 14:12:43;;;;;;;;;;;23.90;79.20;;;;;;5065702;28;19920;-45
2022/06/16 14:15:09;;;;;;;;;;;23.80;77.10;;;;;;5066441;28;21051;-46
2022/06/16 14:17:46;;;;;;;;;;;23.80;77.00;;;;;;5069015;28;20403;-45
2022/06/16 14:20:12;;;;;;;;;;;23.80;76.10;;;;;;5066717;28;19928;-45
2022/06/16 14:22:39;;;;;;;;;;;23.80;76.70;;;;;;5060822;28;19924;-45
2022/06/16 14:25:15;;;;;;;;;;;23.70;77.10;;;;;;5063557;28;19921;-47
2022/06/16 14:27:49;;;;;;;;;;;23.70;76.60;;;;;;5067735;28;19928;-45
2022/06/16 14:30:21;;;;;;;;;;;23.60;77.60;;;;;;5064328;28;19916;-45
2022/06/16 14:32:51;;;;;;;;;;;23.50;76.60;;;;;;5065277;28;20364;-45
2022/06/16 14:35:26;;;;;;;;;;;23.50;77.20;;;;;;5058811;28;20051;-45
2022/06/16 14:37:51;;;;;;;;;;;23.60;78.40;;;;;;5055988;28;20014;-46
2022/06/16 14:40:22;;;;;;;;;;;23.60;78.30;;;;;;5059785;28;19998;-45
2022/06/16 14:42:49;;;;;;;;;;;23.70;77.50;;;;;;5056160;28;19920;-45
2022/06/16 14:45:20;;;;;;;;;;;23.70;78.00;;;;;;5062852;28;19967;-47
2022/06/16 14:48:05;;;;;;;;;;;23.80;76.60;;;;;;5067346;28;20415;-45
2022/06/16 14:50:38;;;;;;;;;;;23.80;76.80;;;;;;5063367;28;20385;-45
2022/06/16 14:53:21;;;;;;;;;;;23.80;76.00;;;;;;5064598;28;19974;-45